createdAt,value
2018-08-09T00:02:00.474Z,25.13
2018-08-09T00:04:29.959Z,25.11
2018-08-09T00:06:59.369Z,25.06
2018-08-09T00:09:28.764Z,24.99
2018-08-09T00:11:58.862Z,24.93
2018-08-09T00:14:29.040Z,24.91
2018-08-09T00:16:58.468Z,24.87
2018-08-09T00:19:27.913Z,24.75
2018-08-09T00:21:57.557Z,24.38
2018-08-09T00:24:27.020Z,24.68
2018-08-09T00:26:56.453Z,24.71
2018-08-09T00:29:26.090Z,24.74
2018-08-09T00:31:55.513Z,24.76
2018-08-09T00:34:25.488Z,24.80
2018-08-09T00:36:54.904Z,24.84
2018-08-09T00:39:24.757Z,24.94
2018-08-09T00:41:55.156Z,24.94
2018-08-09T00:44:24.599Z,25.02
2018-08-09T00:46:54.021Z,25.10
2018-08-09T00:49:26.658Z,25.17
2018-08-09T00:51:56.102Z,25.22
2018-08-09T00:54:25.529Z,25.28
2018-08-09T00:56:54.967Z,25.32
2018-08-09T00:59:24.400Z,25.36
2018-08-09T01:01:53.840Z,25.33
2018-08-09T01:04:23.290Z,25.40
2018-08-09T01:06:52.748Z,25.42
2018-08-09T01:09:22.186Z,25.45
2018-08-09T01:11:51.616Z,25.52
2018-08-09T01:14:21.055Z,25.46
2018-08-09T01:16:50.865Z,25.44
2018-08-09T01:19:20.326Z,25.36
2018-08-09T01:21:49.778Z,25.38
2018-08-09T01:24:19.274Z,25.34
2018-08-09T01:26:48.684Z,25.31
2018-08-09T01:29:18.079Z,25.18
2018-08-09T01:31:47.519Z,25.06
2018-08-09T01:34:17.018Z,25.01
2018-08-09T01:36:47.173Z,24.99
2018-08-09T01:39:17.509Z,25.12
2018-08-09T01:41:58.964Z,25.12
2018-08-09T01:44:28.356Z,25.20
2018-08-09T01:46:58.130Z,25.22
2018-08-09T01:49:27.597Z,25.24
2018-08-09T01:51:57.043Z,25.22
2018-08-09T01:54:26.529Z,25.25
2018-08-09T01:56:55.975Z,25.30
2018-08-09T01:59:25.761Z,25.31
2018-08-09T02:01:55.152Z,25.15
2018-08-09T02:04:25.206Z,25.30
2018-08-09T02:06:54.804Z,25.27
2018-08-09T02:09:29.408Z,25.22
2018-08-09T02:11:58.796Z,25.06
2018-08-09T02:14:28.185Z,24.97
2018-08-09T02:16:57.733Z,24.79
2018-08-09T02:19:27.109Z,24.63
2018-08-09T02:21:56.754Z,24.60
2018-08-09T02:24:26.502Z,24.50
2018-08-09T02:26:55.949Z,24.36
2018-08-09T02:29:25.361Z,24.32
2018-08-09T02:31:54.769Z,24.18
2018-08-09T02:34:24.202Z,24.05
2018-08-09T02:36:53.582Z,23.97
2018-08-09T02:39:23.010Z,23.93
2018-08-09T02:41:52.440Z,23.93
2018-08-09T02:44:21.939Z,24.04
2018-08-09T02:46:51.408Z,24.10
2018-08-09T02:49:21.000Z,24.15
2018-08-09T02:51:51.102Z,24.22
2018-08-09T02:54:20.522Z,24.10
2018-08-09T02:56:53.901Z,23.95
2018-08-09T02:59:23.423Z,23.80
2018-08-09T03:01:52.800Z,23.54
2018-08-09T03:04:22.312Z,23.68
2018-08-09T03:06:51.835Z,23.74
2018-08-09T03:09:21.252Z,23.26
2018-08-09T03:11:50.644Z,23.97
2018-08-09T03:14:20.190Z,24.06
2018-08-09T03:16:49.592Z,24.05
2018-08-09T03:19:19.009Z,24.07
2018-08-09T03:21:48.560Z,24.04
2018-08-09T03:24:18.898Z,23.95
2018-08-09T03:26:48.724Z,23.77
2018-08-09T03:29:18.229Z,23.63
2018-08-09T03:31:48.024Z,23.53
2018-08-09T03:34:17.508Z,23.31
2018-08-09T03:36:46.908Z,23.22
2018-08-09T03:39:16.326Z,23.21
2018-08-09T03:41:45.786Z,23.20
2018-08-09T03:44:15.226Z,23.12
2018-08-09T03:46:45.625Z,23.10
2018-08-09T03:49:15.060Z,23.06
2018-08-09T03:51:44.577Z,23.07
2018-08-09T03:54:14.033Z,22.97
2018-08-09T03:56:43.464Z,23.15
2018-08-09T03:59:12.941Z,23.23
2018-08-09T04:01:42.364Z,23.30
2018-08-09T04:04:11.825Z,23.36
2018-08-09T04:06:41.593Z,23.45
2018-08-09T04:09:11.993Z,23.50
2018-08-09T04:11:42.989Z,23.58
2018-08-09T04:14:12.593Z,23.45
2018-08-09T04:16:42.058Z,23.70
2018-08-09T04:19:11.492Z,23.76
2018-08-09T04:21:41.241Z,23.85
2018-08-09T04:24:10.667Z,23.88
2018-08-09T04:26:40.940Z,23.86
2018-08-09T04:29:11.619Z,23.93
2018-08-09T04:31:42.291Z,23.97
2018-08-09T04:34:11.730Z,23.99
2018-08-09T04:36:41.565Z,24.04
2018-08-09T04:39:12.528Z,24.06
2018-08-09T04:41:42.935Z,24.06
2018-08-09T04:44:14.285Z,24.08
2018-08-09T04:46:44.637Z,24.09
2018-08-09T04:49:14.183Z,24.15
2018-08-09T04:51:43.772Z,24.24
2018-08-09T04:54:13.333Z,23.23
2018-08-09T04:56:42.761Z,24.32
2018-08-09T04:59:12.395Z,24.25
2018-08-09T05:01:41.926Z,24.18
2018-08-09T05:04:12.305Z,24.09
2018-08-09T05:06:41.788Z,24.01
2018-08-09T05:09:11.803Z,24.03
2018-08-09T05:11:42.130Z,24.06
2018-08-09T05:14:11.872Z,24.09
2018-08-09T05:16:42.107Z,24.19
2018-08-09T05:19:11.569Z,24.22
2018-08-09T05:21:42.061Z,24.29
2018-08-09T05:24:12.085Z,24.35
2018-08-09T05:26:41.584Z,21.81
2018-08-09T05:29:11.021Z,24.35
2018-08-09T05:31:40.568Z,24.42
2018-08-09T05:34:09.995Z,24.47
2018-08-09T05:36:39.629Z,24.12
2018-08-09T05:39:14.027Z,24.46
2018-08-09T05:41:43.651Z,24.47
2018-08-09T05:44:14.083Z,24.44
2018-08-09T05:46:43.473Z,24.49
2018-08-09T05:49:14.015Z,24.50
2018-08-09T05:51:43.413Z,24.55
2018-08-09T05:54:13.033Z,24.52
2018-08-09T05:56:42.424Z,24.60
2018-08-09T05:59:12.331Z,24.65
2018-08-09T06:01:41.746Z,24.76
2018-08-09T06:04:11.693Z,24.88
2018-08-09T06:06:41.176Z,24.99
2018-08-09T06:09:14.313Z,25.07
2018-08-09T06:11:44.405Z,25.13
2018-08-09T06:14:13.783Z,25.12
2018-08-09T06:16:43.637Z,25.17
2018-08-09T06:19:13.084Z,25.24
2018-08-09T06:21:42.535Z,25.29
2018-08-09T06:24:11.932Z,25.41
2018-08-09T06:26:42.370Z,25.50
2018-08-09T06:29:11.871Z,25.54
2018-08-09T06:31:41.909Z,25.60
2018-08-09T06:34:11.336Z,25.66
2018-08-09T06:36:41.529Z,25.67
2018-08-09T06:39:10.933Z,25.74
2018-08-09T06:41:40.969Z,25.81
2018-08-09T06:44:10.517Z,25.89
2018-08-09T06:46:40.261Z,25.98
2018-08-09T06:49:09.692Z,26.05
2018-08-09T06:51:39.300Z,26.12
2018-08-09T06:54:09.188Z,26.19
2018-08-09T06:56:39.125Z,26.27
2018-08-09T06:59:08.614Z,26.30
2018-08-09T07:01:38.057Z,26.39
2018-08-09T07:04:07.666Z,26.48
2018-08-09T07:06:37.141Z,26.56
2018-08-09T07:09:11.369Z,26.65
2018-08-09T07:11:40.852Z,26.86
2018-08-09T07:14:11.726Z,26.94
2018-08-09T07:16:42.343Z,27.05
2018-08-09T07:19:11.883Z,27.06
2018-08-09T07:21:41.377Z,27.13
2018-08-09T07:24:11.279Z,27.28
2018-08-09T07:26:41.851Z,27.41
2018-08-09T07:29:12.583Z,27.47
2018-08-09T07:31:42.085Z,27.57
2018-08-09T07:34:44.738Z,27.71
2018-08-09T07:37:15.133Z,27.83
2018-08-09T07:39:46.128Z,27.95
2018-08-09T07:42:15.639Z,28.01
2018-08-09T07:44:45.301Z,28.06
2018-08-09T07:47:16.664Z,28.24
2018-08-09T07:49:46.753Z,28.21
2018-08-09T07:52:16.935Z,28.16
2018-08-09T07:54:47.427Z,28.30
2018-08-09T07:57:17.775Z,28.47
2018-08-09T07:59:48.376Z,27.67
2018-08-09T08:02:18.472Z,28.53
2018-08-09T08:04:48.164Z,28.77
2018-08-09T08:07:18.697Z,28.91
2018-08-09T08:09:49.037Z,28.78
2018-08-09T08:12:18.531Z,29.01
2018-08-09T08:14:48.904Z,29.01
2018-08-09T08:17:18.397Z,29.16
2018-08-09T08:19:48.087Z,29.22
2018-08-09T08:22:17.567Z,29.32
2018-08-09T08:24:47.980Z,29.39
2018-08-09T08:30:20.089Z,29.41
2018-08-09T08:32:50.591Z,29.51
2018-08-09T08:35:20.172Z,29.60
2018-08-09T08:37:49.806Z,29.66
2018-08-09T08:40:19.184Z,29.64
2018-08-09T08:42:48.584Z,29.77
2018-08-09T08:45:18.616Z,27.52
2018-08-09T08:47:48.067Z,29.75
2018-08-09T08:50:17.766Z,28.95
2018-08-09T08:52:47.517Z,29.75
2018-08-09T08:55:17.646Z,29.91
2018-08-09T08:57:48.817Z,29.98
2018-08-09T09:00:21.275Z,30.11
2018-08-09T09:02:51.062Z,30.27
2018-08-09T09:05:23.188Z,30.46
2018-08-09T09:07:52.613Z,30.63
2018-08-09T09:10:22.560Z,30.61
2018-08-09T09:12:52.545Z,30.70
2018-08-09T09:15:21.965Z,30.82
2018-08-09T09:17:52.397Z,30.89
2018-08-09T09:20:22.591Z,31.11
2018-08-09T09:22:53.132Z,31.02
2018-08-09T09:25:22.581Z,31.17
2018-08-09T09:27:52.138Z,31.52
2018-08-09T09:30:22.992Z,31.53
2018-08-09T09:32:55.600Z,31.59
2018-08-09T09:35:25.001Z,31.68
2018-08-09T09:37:57.085Z,31.77
2018-08-09T09:40:28.196Z,31.83
2018-08-09T09:42:58.287Z,32.00
2018-08-09T09:45:27.892Z,31.91
2018-08-09T09:47:57.365Z,32.10
2018-08-09T09:50:27.440Z,32.24
2018-08-09T09:52:57.494Z,32.30
2018-08-09T09:55:26.903Z,31.40
2018-08-09T09:57:57.616Z,31.80
2018-08-09T10:00:30.164Z,32.25
2018-08-09T10:02:59.936Z,32.54
2018-08-09T10:05:29.371Z,32.79
2018-08-09T10:07:59.687Z,32.95
2018-08-09T10:10:29.338Z,32.44
2018-08-09T10:13:08.221Z,32.92
2018-08-09T10:15:46.565Z,33.29
2018-08-09T10:18:16.071Z,33.49
2018-08-09T10:20:45.646Z,33.75
2018-08-09T10:23:15.627Z,33.87
2018-08-09T10:25:45.668Z,33.97
2018-08-09T10:28:25.654Z,34.08
2018-08-09T10:30:56.352Z,33.38
2018-08-09T10:33:25.835Z,33.80
2018-08-09T10:35:56.674Z,33.93
2018-08-09T10:38:26.189Z,33.97
2018-08-09T10:40:56.474Z,34.38
2018-08-09T10:43:26.152Z,34.68
2018-08-09T10:45:57.020Z,34.82
2018-08-09T10:48:27.403Z,34.92
2018-08-09T10:50:56.817Z,35.06
2018-08-09T10:53:27.303Z,34.85
2018-08-09T10:55:57.790Z,34.08
2018-08-09T10:58:28.240Z,34.25
2018-08-09T11:00:57.672Z,34.59
2018-08-09T11:03:27.158Z,34.94
2018-08-09T11:05:59.409Z,34.95
2018-08-09T11:08:29.312Z,34.76
2018-08-09T11:11:03.578Z,34.89
2018-08-09T11:13:33.843Z,35.31
2018-08-09T11:16:03.794Z,35.47
2018-08-09T11:18:33.170Z,35.58
2018-08-09T11:21:03.463Z,35.51
2018-08-09T11:23:33.182Z,35.63
2018-08-09T11:26:02.625Z,35.76
2018-08-09T11:28:32.134Z,35.97
2018-08-09T11:31:01.625Z,35.91
2018-08-09T11:33:31.996Z,35.89
2018-08-09T11:36:06.013Z,35.94
2018-08-09T11:38:35.479Z,35.80
2018-08-09T11:41:04.940Z,35.90
2018-08-09T11:43:35.593Z,36.09
2018-08-09T11:46:05.660Z,36.17
2018-08-09T11:48:35.377Z,36.30
2018-08-09T11:51:12.763Z,36.16
2018-08-09T11:53:43.117Z,36.01
2018-08-09T11:56:13.196Z,35.90
2018-08-09T11:58:43.361Z,35.71
2018-08-09T12:01:13.130Z,35.80
2018-08-09T12:03:43.319Z,36.15
2018-08-09T12:06:12.762Z,36.29
2018-08-09T12:08:42.482Z,36.25
2018-08-09T12:11:15.605Z,36.53
2018-08-09T12:13:45.107Z,36.46
2018-08-09T12:16:16.036Z,36.41
2018-08-09T12:18:45.525Z,36.82
2018-08-09T12:21:15.015Z,36.49
2018-08-09T12:23:44.426Z,36.78
2018-08-09T12:26:13.991Z,36.36
2018-08-09T12:28:43.440Z,36.22
2018-08-09T12:31:13.333Z,36.20
2018-08-09T12:33:42.988Z,36.28
2018-08-09T12:36:12.900Z,36.27
2018-08-09T12:38:42.600Z,36.29
2018-08-09T12:41:15.956Z,36.05
2018-08-09T12:43:46.562Z,35.95
2018-08-09T12:46:16.012Z,35.38
2018-08-09T12:48:45.950Z,35.95
2018-08-09T12:51:15.409Z,36.17
2018-08-09T12:53:45.520Z,36.07
2018-08-09T12:56:14.997Z,36.29
2018-08-09T12:58:44.762Z,36.51
2018-08-09T13:01:14.272Z,35.74
2018-08-09T13:03:43.836Z,35.96
2018-08-09T13:06:13.249Z,35.58
2018-08-09T13:08:45.226Z,35.89
2018-08-09T13:11:21.458Z,36.09
2018-08-09T13:13:54.279Z,35.99
2018-08-09T13:16:23.742Z,36.00
2018-08-09T13:18:54.800Z,36.13
2018-08-09T13:21:24.249Z,36.22
2018-08-09T13:23:53.653Z,36.24
2018-08-09T13:26:24.552Z,35.76
2018-08-09T13:28:54.000Z,35.75
2018-08-09T13:31:24.288Z,35.84
2018-08-09T13:33:56.346Z,35.50
2018-08-09T13:36:26.099Z,35.30
2018-08-09T13:38:55.660Z,35.46
2018-08-09T13:41:25.106Z,35.77
2018-08-09T13:43:54.970Z,35.90
2018-08-09T13:46:24.385Z,36.10
2018-08-09T13:48:56.363Z,35.59
2018-08-09T13:51:25.860Z,35.60
2018-08-09T13:53:55.535Z,35.54
2018-08-09T13:56:25.385Z,35.89
2018-08-09T13:58:56.004Z,35.82
2018-08-09T14:01:26.097Z,35.80
2018-08-09T14:03:56.927Z,36.07
2018-08-09T14:06:28.264Z,36.25
2018-08-09T14:08:58.377Z,35.84
2018-08-09T14:11:29.891Z,35.80
2018-08-09T14:13:59.893Z,35.98
2018-08-09T14:16:29.643Z,35.76
2018-08-09T14:18:59.125Z,35.75
2018-08-09T14:21:29.372Z,35.74
2018-08-09T14:23:59.253Z,35.84
2018-08-09T14:26:29.086Z,35.78
2018-08-09T14:28:58.805Z,35.68
2018-08-09T14:31:30.465Z,34.73
2018-08-09T14:34:02.017Z,35.47
2018-08-09T14:36:35.581Z,35.69
2018-08-09T14:39:09.324Z,35.78
2018-08-09T14:41:41.273Z,35.81
2018-08-09T14:44:10.815Z,35.43
2018-08-09T14:46:42.748Z,35.44
2018-08-09T14:49:12.485Z,35.23
2018-08-09T14:51:42.278Z,35.37
2018-08-09T14:54:13.201Z,35.30
2018-08-09T14:56:44.476Z,35.54
2018-08-09T14:59:13.901Z,35.70
2018-08-09T15:01:45.446Z,35.72
2018-08-09T15:04:15.170Z,35.51
2018-08-09T15:06:46.737Z,35.45
2018-08-09T15:09:18.756Z,35.27
2018-08-09T15:11:48.632Z,35.31
2018-08-09T15:14:18.115Z,35.36
2018-08-09T15:16:47.587Z,35.36
2018-08-09T15:19:17.963Z,35.41
2018-08-09T15:21:49.272Z,35.48
2018-08-09T15:24:18.792Z,35.31
2018-08-09T15:26:48.248Z,35.19
2018-08-09T15:29:17.764Z,35.34
2018-08-09T15:31:47.530Z,35.27
2018-08-09T15:34:17.006Z,35.18
2018-08-09T15:36:46.512Z,35.10
2018-08-09T15:39:16.017Z,34.98
2018-08-09T15:41:45.426Z,34.93
2018-08-09T15:44:14.933Z,34.88
2018-08-09T15:46:44.432Z,34.83
2018-08-09T15:49:13.881Z,34.83
2018-08-09T15:51:43.431Z,34.85
2018-08-09T15:54:13.466Z,34.79
2018-08-09T15:56:45.449Z,34.74
2018-08-09T15:59:15.449Z,34.75
2018-08-09T16:01:46.622Z,34.70
2018-08-09T16:04:16.737Z,34.66
2018-08-09T16:06:49.254Z,34.59
2018-08-09T16:09:22.078Z,34.58
2018-08-09T16:11:52.314Z,34.58
2018-08-09T16:14:25.780Z,34.59
2018-08-09T16:16:55.223Z,34.46
2018-08-09T16:19:27.256Z,34.40
2018-08-09T16:21:57.063Z,34.40
2018-08-09T16:24:27.611Z,34.37
2018-08-09T16:26:57.127Z,34.30
2018-08-09T16:29:26.609Z,34.27
2018-08-09T16:31:56.480Z,34.21
2018-08-09T16:34:28.926Z,34.19
2018-08-09T16:36:58.383Z,34.09
2018-08-09T16:39:28.792Z,34.07
2018-08-09T16:41:58.942Z,34.11
2018-08-09T16:44:29.299Z,34.12
2018-08-09T16:46:59.342Z,34.12
2018-08-09T16:49:28.823Z,33.41
2018-08-09T16:51:59.557Z,34.01
2018-08-09T16:55:40.118Z,33.98
2018-08-09T16:58:13.312Z,33.83
2018-08-09T17:00:46.666Z,33.77
2018-08-09T17:03:19.281Z,33.77
2018-08-09T17:05:52.885Z,33.73
2018-08-09T17:08:22.724Z,33.73
2018-08-09T17:10:53.003Z,33.72
2018-08-09T17:13:22.802Z,33.72
2018-08-09T17:15:52.251Z,33.69
2018-08-09T17:18:22.659Z,33.64
2018-08-09T17:20:52.462Z,33.57
2018-08-09T17:23:22.050Z,33.50
2018-08-09T17:25:53.354Z,33.43
2018-08-09T17:28:24.745Z,33.37
2018-08-09T17:31:05.397Z,33.31
2018-08-09T17:33:34.991Z,33.19
2018-08-09T17:36:06.210Z,33.16
2018-08-09T17:38:36.632Z,33.06
2018-08-09T17:41:07.082Z,33.06
2018-08-09T17:43:37.241Z,33.00
2018-08-09T17:46:07.534Z,32.92
2018-08-09T17:48:37.206Z,32.72
2018-08-09T17:51:07.135Z,32.78
2018-08-09T17:53:37.365Z,32.71
2018-08-09T17:56:16.216Z,32.62
2018-08-09T17:58:45.989Z,32.59
2018-08-09T18:01:15.495Z,32.53
2018-08-09T18:03:47.907Z,31.47
2018-08-09T18:06:17.340Z,32.50
2018-08-09T18:08:46.848Z,32.46
2018-08-09T18:11:16.771Z,32.38
2018-08-09T18:13:46.339Z,32.35
2018-08-09T18:16:16.541Z,32.31
2018-08-09T18:18:47.626Z,32.24
2018-08-09T18:21:17.462Z,32.22
2018-08-09T18:23:47.310Z,32.20
2018-08-09T18:26:18.562Z,32.12
2018-08-09T18:28:49.123Z,32.01
2018-08-09T18:31:19.416Z,31.92
2018-08-09T18:33:49.043Z,31.87
2018-08-09T18:36:19.225Z,31.77
2018-08-09T18:38:49.300Z,31.70
2018-08-09T18:41:18.894Z,31.64
2018-08-09T18:43:48.654Z,31.58
2018-08-09T18:46:20.241Z,31.53
2018-08-09T18:48:50.665Z,31.50
2018-08-09T18:51:23.504Z,31.45
2018-08-09T18:53:53.993Z,31.40
2018-08-09T18:56:34.420Z,31.34
2018-08-09T18:59:07.912Z,31.31
2018-08-09T19:01:43.813Z,31.26
2018-08-09T19:04:13.368Z,31.21
2018-08-09T19:06:45.650Z,31.15
2018-08-09T19:09:15.887Z,31.06
2018-08-09T19:11:58.263Z,31.04
2018-08-09T19:14:29.393Z,30.86
2018-08-09T19:16:59.224Z,30.98
2018-08-09T19:19:30.112Z,30.95
2018-08-09T19:22:00.181Z,30.92
2018-08-09T19:24:29.779Z,30.89
2018-08-09T19:26:59.336Z,30.67
2018-08-09T19:29:28.987Z,30.76
2018-08-09T19:31:58.573Z,30.70
2018-08-09T19:34:28.481Z,30.69
2018-08-09T19:36:58.472Z,30.71
2018-08-09T19:39:29.865Z,30.66
2018-08-09T19:41:59.616Z,30.64
2018-08-09T19:44:29.476Z,30.51
2018-08-09T19:46:58.982Z,30.51
2018-08-09T19:49:29.348Z,30.48
2018-08-09T19:52:00.471Z,30.46
2018-08-09T19:54:30.272Z,30.40
2018-08-09T19:57:01.602Z,30.39
2018-08-09T20:00:32.519Z,30.30
2018-08-09T20:03:02.296Z,30.25
2018-08-09T20:05:32.708Z,30.18
2018-08-09T20:08:02.863Z,30.09
2018-08-09T20:10:33.113Z,30.09
2018-08-09T20:13:03.050Z,30.00
2018-08-09T20:15:32.960Z,29.95
2018-08-09T20:18:02.410Z,29.91
2018-08-09T20:20:32.399Z,29.27
2018-08-09T20:23:02.277Z,29.79
2018-08-09T20:25:31.736Z,29.78
2018-08-09T20:28:01.341Z,29.72
2018-08-09T20:30:30.796Z,29.70
2018-08-09T20:33:00.318Z,29.67
2018-08-09T20:35:29.812Z,29.59
2018-08-09T20:37:59.356Z,29.53
2018-08-09T20:40:28.833Z,29.54
2018-08-09T20:42:58.280Z,29.51
2018-08-09T20:45:27.747Z,29.47
2018-08-09T20:47:57.543Z,29.41
2018-08-09T20:50:28.525Z,29.32
2018-08-09T20:53:00.030Z,29.24
2018-08-09T20:55:29.619Z,29.28
2018-08-09T20:57:59.652Z,29.29
2018-08-09T21:00:30.854Z,29.23
2018-08-09T21:03:01.110Z,29.20
2018-08-09T21:05:33.932Z,29.18
2018-08-09T21:08:03.589Z,29.07
2018-08-09T21:10:33.464Z,29.02
2018-08-09T21:13:02.915Z,29.02
2018-08-09T21:15:33.183Z,28.97
2018-08-09T21:18:02.708Z,28.93
2018-08-09T21:20:32.182Z,28.77
2018-08-09T21:23:01.749Z,28.71
2018-08-09T21:25:31.254Z,28.63
2018-08-09T21:28:00.801Z,28.63
2018-08-09T21:30:30.269Z,28.57
2018-08-09T21:33:00.178Z,28.37
2018-08-09T21:35:29.643Z,28.52
2018-08-09T21:38:00.484Z,28.48
2018-08-09T21:40:30.013Z,28.46
2018-08-09T21:43:00.574Z,28.53
2018-08-09T21:45:30.409Z,28.60
2018-08-09T21:47:59.851Z,28.60
2018-08-09T21:50:29.304Z,28.41
2018-08-09T21:52:58.853Z,28.61
2018-08-09T21:55:30.089Z,28.59
2018-08-09T21:57:59.886Z,28.55
2018-08-09T22:01:03.780Z,28.51
2018-08-09T22:03:35.428Z,28.47
2018-08-09T22:06:10.190Z,28.44
2018-08-09T22:08:45.158Z,28.44
2018-08-09T22:11:20.175Z,28.38
2018-08-09T22:13:54.827Z,28.36
2018-08-09T22:16:29.714Z,28.31
2018-08-09T22:19:07.045Z,28.27
2018-08-09T22:21:41.688Z,28.21
2018-08-09T22:24:15.129Z,28.15
2018-08-09T22:26:44.841Z,28.14
2018-08-09T22:29:14.401Z,28.11
2018-08-09T22:31:43.954Z,28.13
2018-08-09T22:34:13.413Z,28.03
2018-08-09T22:36:42.966Z,27.97
2018-08-09T22:39:12.470Z,27.97
2018-08-09T22:41:41.973Z,27.95
2018-08-09T22:44:11.508Z,27.91
2018-08-09T22:46:40.991Z,27.86
2018-08-09T22:49:10.459Z,27.76
2018-08-09T22:51:39.973Z,27.76
2018-08-09T22:54:09.432Z,27.72
2018-08-09T22:56:38.987Z,27.68
2018-08-09T22:59:08.819Z,27.74
2018-08-09T23:01:38.266Z,27.69
2018-08-09T23:04:07.844Z,27.66
2018-08-09T23:06:37.378Z,27.65
2018-08-09T23:09:09.514Z,27.64
2018-08-09T23:11:39.057Z,27.57
2018-08-09T23:14:08.643Z,27.54
2018-08-09T23:16:38.185Z,27.58
2018-08-09T23:19:07.766Z,27.57
2018-08-09T23:21:37.311Z,27.60
2018-08-09T23:24:07.154Z,27.61
2018-08-09T23:26:36.699Z,27.58
2018-08-09T23:29:06.171Z,27.57
2018-08-09T23:31:35.650Z,27.54
2018-08-09T23:34:05.790Z,27.48
2018-08-09T23:36:35.297Z,27.47
2018-08-09T23:39:08.553Z,27.44
2018-08-09T23:41:38.100Z,27.41
2018-08-09T23:44:07.822Z,27.40
2018-08-09T23:46:37.858Z,27.45
2018-08-09T23:49:07.438Z,27.44
2018-08-09T23:51:36.909Z,24.22
2018-08-09T23:54:06.435Z,27.45
2018-08-09T23:56:35.940Z,27.44
2018-08-09T23:59:05.427Z,27.42
